Eurasian Highway — 7JKY — position and weather

sailwx.info

Track history (hours):
 
Tides and Currents Weather Stations Pressure Air Temp Water Temp Dewpoint Dewpoint Depression Visibility Wind Speed Wind Dir Waves Ship Positions

Eurasian Highway

Last reported at 2015-Apr-27 09:22 UTC. Time now 2015-May-05 05:11 UTC.
Position N 37°09' E 124°08'.

Length 199 m; draft 6.8 m.

Type: Cargo ship. MMSI: 432839000.

Date/timePositionNaut miles runAvg speedWind from/ knotsBaromVisibWave heightAir tempDewpointWater temp
2015-Apr-27 09:22N 37°09' E 124°08'18 9.2
2015-Apr-27 07:25N 37°19' E 123°49'1617.9
2015-Apr-27 06:33N 37°08' E 124°03'1918.5
2015-Apr-27 05:33N 36°56' E 124°20'  
2015-Apr-24 13:23N 33°40' E 127°36'10 3.4
2015-Apr-24 10:24N 33°47' E 127°45'3618.5
2015-Apr-24 08:27N 33°21' E 127°15'9018.3
2015-Apr-24 03:33N 32°16' E 126°01'1717.6
2015-Apr-24 02:33N 32°03' E 125°47'1916.2
2015-Apr-24 01:24N 31°54' E 125°27'1416.4
2015-Apr-24 00:33N 31°51' E 125°11'1817.5
2015-Apr-23 23:32N 31°40' E 124°55'1717.5
2015-Apr-23 22:33N 31°30' E 124°39'1818.0
2015-Apr-23 21:33N 31°19' E 124°23'1818.3
2015-Apr-23 20:33N 31°07' E 124°06'1818.4
2015-Apr-23 19:33N 30°56' E 123°49'1818.1
2015-Apr-23 18:33N 30°44' E 123°33'1817.9
2015-Apr-23 17:33N 30°32' E 123°17'1716.9
2015-Apr-23 16:33N 30°30' E 122°58'1615.6
2015-Apr-23 15:32N 30°30' E 122°39'1010.3
2015-Apr-23 14:33N 30°31' E 122°28'7 6.6
2015-Apr-23 13:33N 30°30' E 122°20'1 1.3
2015-Apr-23 12:31N 30°29' E 122°19'0 0.0
2015-Apr-23 11:31N 30°29' E 122°19'0 0.1
2015-Apr-23 10:31N 30°29' E 122°19'0 0.0
2015-Apr-23 09:28N 30°29' E 122°19'0 0.1
2015-Apr-23 08:31N 30°29' E 122°19'0 0.2
2015-Apr-23 06:33N 30°29' E 122°19'2 0.8
2015-Apr-23 04:19N 30°29' E 122°17'0 0.0
2015-Apr-23 03:31N 30°29' E 122°17'  
2015-Apr-18 07:17N 30°29' E 122°18'  
Track history (hours):
 
Tides and Currents Weather Stations Pressure Air Temp Water Temp Dewpoint Dewpoint Depression Visibility Wind Speed Wind Dir Waves Ship Positions

Eurasian Highway

Last reported at 2015-Apr-27 09:22 UTC. Time now 2015-May-05 05:11 UTC.
Position N 37°09' E 124°08'.

Length 199 m; draft 6.8 m.

Type: Cargo ship. MMSI: 432839000.

Date/timePositionNaut miles runAvg speedWind from/ knotsBaromVisibWave heightAir tempDewpointWater temp
2015-Apr-27 09:22N 37°09' E 124°08'18 9.2
2015-Apr-27 07:25N 37°19' E 123°49'1617.9
2015-Apr-27 06:33N 37°08' E 124°03'1918.5
2015-Apr-27 05:33N 36°56' E 124°20'  
2015-Apr-24 13:23N 33°40' E 127°36'10 3.4
2015-Apr-24 10:24N 33°47' E 127°45'3618.5
2015-Apr-24 08:27N 33°21' E 127°15'9018.3
2015-Apr-24 03:33N 32°16' E 126°01'1717.6
2015-Apr-24 02:33N 32°03' E 125°47'1916.2
2015-Apr-24 01:24N 31°54' E 125°27'1416.4
2015-Apr-24 00:33N 31°51' E 125°11'1817.5
2015-Apr-23 23:32N 31°40' E 124°55'1717.5
2015-Apr-23 22:33N 31°30' E 124°39'1818.0
2015-Apr-23 21:33N 31°19' E 124°23'1818.3
2015-Apr-23 20:33N 31°07' E 124°06'1818.4
2015-Apr-23 19:33N 30°56' E 123°49'1818.1
2015-Apr-23 18:33N 30°44' E 123°33'1817.9
2015-Apr-23 17:33N 30°32' E 123°17'1716.9
2015-Apr-23 16:33N 30°30' E 122°58'1615.6
2015-Apr-23 15:32N 30°30' E 122°39'1010.3
2015-Apr-23 14:33N 30°31' E 122°28'7 6.6
2015-Apr-23 13:33N 30°30' E 122°20'1 1.3
2015-Apr-23 12:31N 30°29' E 122°19'0 0.0
2015-Apr-23 11:31N 30°29' E 122°19'0 0.1
2015-Apr-23 10:31N 30°29' E 122°19'0 0.0
2015-Apr-23 09:28N 30°29' E 122°19'0 0.1
2015-Apr-23 08:31N 30°29' E 122°19'0 0.2
2015-Apr-23 06:33N 30°29' E 122°19'2 0.8
2015-Apr-23 04:19N 30°29' E 122°17'0 0.0
2015-Apr-23 03:31N 30°29' E 122°17'  
2015-Apr-18 07:17N 30°29' E 122°18'  

Dump ship's entire track history